Abrela — EAVW — position and weather

sailwx.info

Track history (hours):
 
Tides and Currents Weather Stations Pressure Air Temp Water Temp Dewpoint Dewpoint Depression Visibility Wind Speed Wind Dir Waves Ship Positions

Abrela

Last reported at 2018-May-14 20:24 UTC. Time now 2018-May-25 14:24 UTC.
Position N 43°33' W 005°42'.
Warning: this ship's position is 10 days out of date.

Length 30 m.

MMSI: 224204490.

Date/timePositionNaut miles runAvg speedWind from/ knotsBaromVisibWave heightAir tempDewpointWater temp
2018-May-14 20:24N 43°33' W 005°42'2 2.5
2018-May-14 19:46N 43°35' W 005°40'2 9.3
2018-May-14 19:30N 43°37' W 005°41'14 0.9
2018-May-14 02:47N 43°37' W 005°22'3 9.8
2018-May-14 02:27N 43°36' W 005°26'510.0
2018-May-14 01:59N 43°35' W 005°32'510.0
2018-May-14 01:30N 43°34' W 005°39'2 4.7
2018-May-14 01:00N 43°33' W 005°42'  
2018-May-11 19:50N 43°33' W 005°42'0 0.0
2018-May-11 19:31N 43°33' W 005°42'0 0.0
2018-May-11 17:52N 43°33' W 005°42'3 7.7
2018-May-11 17:26N 43°36' W 005°39'4 9.4
2018-May-11 17:00N 43°40' W 005°37'20 1.8
2018-May-11 05:38N 43°45' W 006°04'1 3.7
2018-May-11 05:27N 43°45' W 006°05'21 2.0
2018-May-10 18:41N 43°40' W 005°36'1 4.1
2018-May-10 18:20N 43°40' W 005°34'3 8.3
2018-May-10 18:00N 43°37' W 005°36'5 9.5
2018-May-10 17:30N 43°34' W 005°41'1 0.0
2018-May-09 20:14N 43°34' W 005°40'2 6.5
2018-May-09 19:59N 43°33' W 005°42'0 0.0
2018-May-09 19:29N 43°33' W 005°42'0 0.0
2018-May-09 19:00N 43°33' W 005°42'5 7.5
2018-May-09 18:23N 43°35' W 005°36'4 9.6
2018-May-09 18:00N 43°36' W 005°31'4 5.7
2018-May-09 17:18N 43°38' W 005°26'0 0.3
2018-May-09 17:00N 43°38' W 005°26'2 3.6
2018-May-09 16:29N 43°39' W 005°28'2 3.8
2018-May-09 16:01N 43°40' W 005°30'2 3.7
2018-May-09 15:27N 43°41' W 005°33'2 3.8
2018-May-09 14:58N 43°42' W 005°35'2 3.9
2018-May-09 14:29N 43°43' W 005°37'14 1.0
2018-May-09 00:40N 43°38' W 005°19'2 9.3
2018-May-09 00:30N 43°38' W 005°21'5 9.2
2018-May-08 23:58N 43°36' W 005°27'11 2.3
2018-May-08 19:13N 43°33' W 005°42'0 0.0
2018-May-08 18:57N 43°33' W 005°42'0 0.4
2018-May-08 18:30N 43°33' W 005°42'5 9.4
2018-May-08 18:00N 43°37' W 005°37'5 9.8
2018-May-08 17:30N 43°41' W 005°33'5 9.6
2018-May-08 17:00N 43°44' W 005°29'18 1.1
2018-May-08 01:09N 43°36' W 005°07'3 9.3
2018-May-08 00:49N 43°36' W 005°12'12 9.2
2018-May-07 23:28N 43°35' W 005°29'5 9.0
2018-May-07 22:56N 43°35' W 005°35'4 9.0
2018-May-07 22:30N 43°34' W 005°40'1 0.3
2018-May-07 18:57N 43°33' W 005°42'3 7.0
2018-May-07 18:31N 43°35' W 005°38'5 9.8
2018-May-07 18:01N 43°37' W 005°32'5 9.9
2018-May-07 17:28N 43°39' W 005°25'13 0.9
2018-May-07 03:48N 43°36' W 005°08'1010.1
2018-May-07 02:50N 43°36' W 005°21'4 9.6
2018-May-07 02:23N 43°36' W 005°27'4 9.8
2018-May-07 01:57N 43°35' W 005°33'5 9.9
2018-May-07 01:29N 43°34' W 005°39'2 3.9
2018-May-07 01:00N 43°33' W 005°42'  
Track history (hours):
 
Tides and Currents Weather Stations Pressure Air Temp Water Temp Dewpoint Dewpoint Depression Visibility Wind Speed Wind Dir Waves Ship Positions

Abrela

Last reported at 2018-May-14 20:24 UTC. Time now 2018-May-25 14:24 UTC.
Position N 43°33' W 005°42'.
Warning: this ship's position is 10 days out of date.

Length 30 m.

MMSI: 224204490.

Date/timePositionNaut miles runAvg speedWind from/ knotsBaromVisibWave heightAir tempDewpointWater temp
2018-May-14 20:24N 43°33' W 005°42'2 2.5
2018-May-14 19:46N 43°35' W 005°40'2 9.3
2018-May-14 19:30N 43°37' W 005°41'14 0.9
2018-May-14 02:47N 43°37' W 005°22'3 9.8
2018-May-14 02:27N 43°36' W 005°26'510.0
2018-May-14 01:59N 43°35' W 005°32'510.0
2018-May-14 01:30N 43°34' W 005°39'2 4.7
2018-May-14 01:00N 43°33' W 005°42'  
2018-May-11 19:50N 43°33' W 005°42'0 0.0
2018-May-11 19:31N 43°33' W 005°42'0 0.0
2018-May-11 17:52N 43°33' W 005°42'3 7.7
2018-May-11 17:26N 43°36' W 005°39'4 9.4
2018-May-11 17:00N 43°40' W 005°37'20 1.8
2018-May-11 05:38N 43°45' W 006°04'1 3.7
2018-May-11 05:27N 43°45' W 006°05'21 2.0
2018-May-10 18:41N 43°40' W 005°36'1 4.1
2018-May-10 18:20N 43°40' W 005°34'3 8.3
2018-May-10 18:00N 43°37' W 005°36'5 9.5
2018-May-10 17:30N 43°34' W 005°41'1 0.0
2018-May-09 20:14N 43°34' W 005°40'2 6.5
2018-May-09 19:59N 43°33' W 005°42'0 0.0
2018-May-09 19:29N 43°33' W 005°42'0 0.0
2018-May-09 19:00N 43°33' W 005°42'5 7.5
2018-May-09 18:23N 43°35' W 005°36'4 9.6
2018-May-09 18:00N 43°36' W 005°31'4 5.7
2018-May-09 17:18N 43°38' W 005°26'0 0.3
2018-May-09 17:00N 43°38' W 005°26'2 3.6
2018-May-09 16:29N 43°39' W 005°28'2 3.8
2018-May-09 16:01N 43°40' W 005°30'2 3.7
2018-May-09 15:27N 43°41' W 005°33'2 3.8
2018-May-09 14:58N 43°42' W 005°35'2 3.9
2018-May-09 14:29N 43°43' W 005°37'14 1.0
2018-May-09 00:40N 43°38' W 005°19'2 9.3
2018-May-09 00:30N 43°38' W 005°21'5 9.2
2018-May-08 23:58N 43°36' W 005°27'11 2.3
2018-May-08 19:13N 43°33' W 005°42'0 0.0
2018-May-08 18:57N 43°33' W 005°42'0 0.4
2018-May-08 18:30N 43°33' W 005°42'5 9.4
2018-May-08 18:00N 43°37' W 005°37'5 9.8
2018-May-08 17:30N 43°41' W 005°33'5 9.6
2018-May-08 17:00N 43°44' W 005°29'18 1.1
2018-May-08 01:09N 43°36' W 005°07'3 9.3
2018-May-08 00:49N 43°36' W 005°12'12 9.2
2018-May-07 23:28N 43°35' W 005°29'5 9.0
2018-May-07 22:56N 43°35' W 005°35'4 9.0
2018-May-07 22:30N 43°34' W 005°40'1 0.3
2018-May-07 18:57N 43°33' W 005°42'3 7.0
2018-May-07 18:31N 43°35' W 005°38'5 9.8
2018-May-07 18:01N 43°37' W 005°32'5 9.9
2018-May-07 17:28N 43°39' W 005°25'13 0.9
2018-May-07 03:48N 43°36' W 005°08'1010.1
2018-May-07 02:50N 43°36' W 005°21'4 9.6
2018-May-07 02:23N 43°36' W 005°27'4 9.8
2018-May-07 01:57N 43°35' W 005°33'5 9.9
2018-May-07 01:29N 43°34' W 005°39'2 3.9
2018-May-07 01:00N 43°33' W 005°42'  

Dump ship's entire track history